createdAt,value
2023-05-06T00:09:05.560Z,101254.72
2023-05-06T00:11:32.052Z,101258.16
2023-05-06T00:13:58.529Z,101244.22
2023-05-06T00:16:25.065Z,101247.88
2023-05-06T00:18:51.522Z,101250.19
2023-05-06T00:21:17.941Z,101248.16
2023-05-06T00:23:44.488Z,101242.56
2023-05-06T00:31:27.641Z,101232.88
2023-05-06T00:33:54.118Z,101241.84
2023-05-06T00:36:20.659Z,101238.88
2023-05-06T00:41:32.815Z,101240.63
2023-05-06T00:49:20.530Z,101243.66
2023-05-06T00:51:47.539Z,101240.22
2023-05-06T01:02:12.657Z,101234.09
2023-05-06T01:04:41.419Z,101238.06
2023-05-06T01:07:32.800Z,101235.16
2023-05-06T01:47:52.389Z,101232.91
2023-05-06T02:11:56.149Z,101251.59
2023-05-06T02:14:22.580Z,101262.66
2023-05-06T02:19:31.160Z,101257.72
2023-05-06T02:24:39.557Z,101255.19
2023-05-06T02:27:09.309Z,101253.66
2023-05-06T02:40:16.642Z,101249.88
2023-05-06T02:42:43.085Z,101245.63
2023-05-06T02:45:10.182Z,101241.22
2023-05-06T02:47:36.815Z,101239.72
2023-05-06T02:50:03.701Z,101238.00
2023-05-06T02:52:30.152Z,101246.09
2023-05-06T02:54:56.587Z,101230.94
2023-05-06T02:57:23.015Z,101243.28
2023-05-06T02:59:49.812Z,101240.00
2023-05-06T03:02:16.220Z,101241.81
2023-05-06T03:04:42.756Z,101248.81
2023-05-06T03:07:09.229Z,101250.22
2023-05-06T03:09:35.636Z,101257.09
2023-05-06T03:12:02.253Z,101256.13
2023-05-06T03:14:28.741Z,101253.34
2023-05-06T03:16:55.514Z,101239.91
2023-05-06T03:19:22.426Z,101244.91
2023-05-06T03:21:49.336Z,101248.72
2023-05-06T03:24:15.989Z,101252.41
2023-05-06T03:26:42.395Z,101252.41
2023-05-06T03:29:08.791Z,101247.38
2023-05-06T03:31:35.464Z,101254.22
2023-05-06T03:34:01.919Z,101251.22
2023-05-06T03:36:29.474Z,101254.00
2023-05-06T03:38:55.956Z,101259.06
2023-05-06T03:41:23.741Z,101255.69
2023-05-06T03:43:50.539Z,101264.19
2023-05-06T03:46:17.133Z,101273.38
2023-05-06T03:48:43.564Z,101261.81
2023-05-06T03:51:10.245Z,101261.00
2023-05-06T03:53:36.712Z,101252.88
2023-05-06T03:56:03.174Z,101241.22
2023-05-06T03:58:29.680Z,101249.97
2023-05-06T04:00:56.146Z,101240.13
2023-05-06T04:03:22.712Z,101236.81
2023-05-06T04:05:50.494Z,101249.81
2023-05-06T04:08:17.286Z,101245.88
2023-05-06T04:10:43.773Z,101250.13
2023-05-06T04:13:10.218Z,101262.22
2023-05-06T04:15:37.599Z,101260.03
2023-05-06T04:18:05.847Z,101254.81
2023-05-06T04:20:32.261Z,101270.88
2023-05-06T04:22:58.721Z,101269.88
2023-05-06T04:25:25.190Z,101269.78
2023-05-06T04:27:51.697Z,101275.69
2023-05-06T04:30:18.314Z,101274.84
2023-05-06T04:32:44.737Z,101271.78
2023-05-06T04:35:11.317Z,101266.41
2023-05-06T04:37:37.887Z,101271.09
2023-05-06T04:40:05.707Z,101277.66
2023-05-06T04:42:32.459Z,101274.38
2023-05-06T04:44:59.374Z,101278.66
2023-05-06T04:47:26.167Z,101286.75
2023-05-06T04:49:52.661Z,101289.09
2023-05-06T04:52:19.094Z,101276.16
2023-05-06T04:54:45.793Z,101281.31
2023-05-06T04:57:12.334Z,101289.25
2023-05-06T04:59:38.797Z,101292.19
2023-05-06T05:02:05.273Z,101281.19
2023-05-06T05:04:31.714Z,101295.16
2023-05-06T05:06:58.600Z,101296.41
2023-05-06T05:09:25.058Z,101301.88
2023-05-06T05:11:51.705Z,101286.72
2023-05-06T05:14:18.127Z,101279.88
2023-05-06T05:16:44.715Z,101288.16
2023-05-06T05:19:11.179Z,101290.34
2023-05-06T05:21:38.471Z,101292.06
2023-05-06T05:24:05.200Z,101284.09
2023-05-06T05:26:31.593Z,101284.59
2023-05-06T05:28:58.008Z,101296.84
2023-05-06T05:31:24.515Z,101300.13
2023-05-06T05:33:51.047Z,101303.41
2023-05-06T05:36:17.820Z,101298.41
2023-05-06T05:38:44.256Z,101308.25
2023-05-06T05:41:10.700Z,101306.47
2023-05-06T05:43:37.129Z,101310.28
2023-05-06T05:46:03.903Z,101322.16
2023-05-06T05:48:32.607Z,101302.00
2023-05-06T05:51:01.909Z,101322.09
2023-05-06T05:53:28.677Z,101316.41
2023-05-06T05:55:55.087Z,101316.75
2023-05-06T05:58:21.718Z,101309.94
2023-05-06T06:00:48.165Z,101319.03
2023-05-06T06:03:14.652Z,101313.19
2023-05-06T06:05:41.548Z,101316.66
2023-05-06T06:08:08.530Z,101313.28
2023-05-06T06:10:35.027Z,101321.34
2023-05-06T06:13:01.702Z,101306.47
2023-05-06T06:15:29.253Z,101309.78
2023-05-06T06:17:55.840Z,101310.28
2023-05-06T06:20:22.332Z,101310.28
2023-05-06T06:22:48.781Z,101320.13
2023-05-06T06:25:15.371Z,101307.91
2023-05-06T06:27:41.788Z,101310.56
2023-05-06T06:30:08.740Z,101323.38
2023-05-06T06:32:35.371Z,101329.78
2023-05-06T06:35:01.925Z,101326.38
2023-05-06T06:37:28.396Z,101337.91
2023-05-06T06:39:54.799Z,101332.81
2023-05-06T06:42:21.356Z,101337.59
2023-05-06T06:44:48.050Z,101345.66
2023-05-06T06:47:14.460Z,101341.72
2023-05-06T06:49:41.170Z,101331.09
2023-05-06T06:52:07.586Z,101342.75
2023-05-06T06:54:34.003Z,101347.19
2023-05-06T06:57:03.451Z,101349.31
2023-05-06T06:59:29.979Z,101356.72
2023-05-06T07:01:56.375Z,101353.09
2023-05-06T07:04:24.596Z,101349.78
2023-05-06T07:06:51.661Z,101334.84
2023-05-06T07:09:18.160Z,101367.00
2023-05-06T07:11:44.698Z,101359.44
2023-05-06T07:14:11.915Z,101354.63
2023-05-06T07:16:38.412Z,101358.59
2023-05-06T07:19:04.947Z,101353.66
2023-05-06T07:21:34.544Z,101363.81
2023-05-06T07:24:01.054Z,101366.53
2023-05-06T07:26:27.502Z,101364.53
2023-05-06T07:28:53.938Z,101362.66
2023-05-06T07:31:21.132Z,101358.16
2023-05-06T07:33:48.050Z,101361.09
2023-05-06T07:36:14.552Z,101367.22
2023-05-06T07:38:41.467Z,101362.41
2023-05-06T07:41:07.946Z,101371.03
2023-05-06T07:43:44.409Z,101373.88
2023-05-06T07:46:11.272Z,101362.47
2023-05-06T07:48:37.766Z,101353.97
2023-05-06T07:51:04.494Z,101361.44
2023-05-06T07:53:30.960Z,101359.25
2023-05-06T07:56:02.028Z,101361.47
2023-05-06T07:58:31.553Z,101362.28
2023-05-06T08:00:58.968Z,101368.47
2023-05-06T08:03:26.192Z,101357.84
2023-05-06T08:05:53.553Z,101376.28
2023-05-06T08:08:21.518Z,101369.56
2023-05-06T08:10:48.060Z,101383.59
2023-05-06T08:13:14.594Z,101382.06
2023-05-06T08:15:41.497Z,101385.56
2023-05-06T08:18:20.911Z,101376.13
2023-05-06T08:20:49.054Z,101385.31
2023-05-06T08:23:15.471Z,101388.81
2023-05-06T08:25:42.116Z,101381.88
2023-05-06T08:28:08.545Z,101376.47
2023-05-06T08:30:34.985Z,101374.81
2023-05-06T08:33:02.203Z,101380.06
2023-05-06T08:35:28.770Z,101378.25
2023-05-06T08:37:55.355Z,101385.88
2023-05-06T08:40:23.391Z,101393.22
2023-05-06T08:42:51.014Z,101388.38
2023-05-06T08:45:17.957Z,101388.53
2023-05-06T08:47:44.921Z,101385.00
2023-05-06T08:50:11.903Z,101382.47
2023-05-06T08:52:39.344Z,101387.56
2023-05-06T08:55:07.285Z,101389.81
2023-05-06T08:57:34.573Z,101384.28
2023-05-06T09:00:01.730Z,101396.56
2023-05-06T09:02:28.372Z,101399.22
2023-05-06T09:04:56.414Z,101389.34
2023-05-06T09:07:24.510Z,101391.66
2023-05-06T09:09:51.604Z,101389.41
2023-05-06T09:12:18.584Z,101385.44
2023-05-06T09:14:46.570Z,101383.41
2023-05-06T09:17:24.144Z,101385.44
2023-05-06T09:19:52.919Z,101389.72
2023-05-06T09:22:22.298Z,101379.53
2023-05-06T09:24:58.036Z,101381.19
2023-05-06T09:27:34.273Z,101377.91
2023-05-06T09:30:06.918Z,101376.69
2023-05-06T09:32:36.728Z,101381.16
2023-05-06T09:35:05.261Z,101377.50
2023-05-06T09:37:31.791Z,101374.22
2023-05-06T09:40:00.589Z,101381.16
2023-05-06T09:42:30.031Z,101368.31
2023-05-06T09:45:02.186Z,101366.50
2023-05-06T09:47:34.187Z,101356.50
2023-05-06T09:50:04.381Z,101370.88
2023-05-06T09:52:31.574Z,101368.13
2023-05-06T09:54:58.393Z,101357.88
2023-05-06T09:57:25.788Z,101370.72
2023-05-06T09:59:53.948Z,101368.63
2023-05-06T10:02:23.033Z,101362.34
2023-05-06T10:04:50.912Z,101366.75
2023-05-06T10:07:22.546Z,101352.91
2023-05-06T10:09:50.217Z,101356.53
2023-05-06T10:12:16.706Z,101361.16
2023-05-06T10:14:43.130Z,101349.53
2023-05-06T10:17:11.421Z,101351.31
2023-05-06T10:19:45.302Z,101351.94
2023-05-06T10:22:33.435Z,101356.75
2023-05-06T10:25:06.285Z,101343.97
2023-05-06T10:27:35.853Z,101335.28
2023-05-06T10:30:02.297Z,101342.28
2023-05-06T10:32:32.638Z,101335.78
2023-05-06T10:35:08.125Z,101333.94
2023-05-06T10:37:35.981Z,101327.16
2023-05-06T10:40:04.690Z,101332.19
2023-05-06T10:42:35.440Z,101327.19
2023-05-06T10:45:06.301Z,101314.97
2023-05-06T10:47:54.848Z,101328.47
2023-05-06T10:50:24.973Z,101323.16
2023-05-06T10:52:56.996Z,101328.84
